Impacts METAR Board
IDs:

KMEM - Memphis Intl, TN, US

Updated at: 2000 UTC 24 Apr 2018
Potential Impact None Slight Moderate High
Time 24/08Z 24/09Z 24/10Z 24/11Z 24/12Z 24/13Z 24/14Z 24/15Z 24/16Z 24/17Z 24/18Z 24/19Z 24/20Z
Temp54 55 55 55 55 56 58 61 62 63 63 65 63
Dewpt54 54 55 55 55 56 57 57 58 56 56 57 57
Altim29.93 29.93 29.93 29.95 29.97 29.99 29.99 30.00 30.01 30.01 30.00 30.00 30.00
VIS4 7 7 5 1 0.25 2.5 10 10 10 10 10 10
CIG16 6 19 5 4 3 6 10 26 29 23 21 27
CoverBKNOVCOVCOVCOVCOVCOVCOVCOVCOVCOVCOVCOVC
FltCatMVFRIFRMVFRIFRLIFRLIFRIFRMVFRMVFRMVFRMVFRMVFRMVFR
WXBR----BRBRBRBR------------
WDir310300320300300290300330340350330310350
WSpd5 6 4 4 5 3 4 7 8 9 11 7 8
WGst-- -- -- -- -- -- -- -- -- -- -- -- --
Raw hourly METARs
KMEM 240754Z 31005KT 4SM BR SCT007 BKN016 12/12 A2993 RMK AO2 SLP132 T01220122 $
KMEM 240854Z 30006KT 7SM BKN006 OVC017 13/12 A2993 RMK AO2 SLP132 T01280122 51003 $
KMEM 240954Z 32004KT 7SM FEW006 BKN019 OVC029 13/13 A2993 RMK AO2 SLP133 T01280128 $
KMEM 241054Z 30004KT 5SM BR BKN005 OVC022 13/13 A2995 RMK AO2 SLP139 T01280128 $
KMEM 241154Z 30005KT 1SM R36L/P6000FT BR BKN004 OVC024 13/13 A2997 RMK AO2 SFC VIS 3 SLP147 70039 T01280128 10128 20117 53015 $
KMEM 241254Z 29003KT 1/4SM R36L/6000VP6000FT BR OVC003 13/13 A2999 RMK AO2 SFC VIS 1 SLP153 T01330133 $
KMEM 241354Z 30004KT 2 1/2SM BR BKN006 OVC011 14/14 A2999 RMK AO2 SFC VIS 6 SLP155 T01440139 $
KMEM 241454Z 33007KT 10SM FEW006 BKN010 OVC030 16/14 A3000 RMK AO2 SLP158 T01610139 51010 $
KMEM 241554Z 34008KT 10SM FEW012 SCT020 OVC026 17/14 A3001 RMK AO2 SLP160 T01670144 $
KMEM 241654Z 35009KT 10SM SCT020 OVC029 17/13 A3001 RMK AO2 SLP161 T01720133 $
KMEM 241754Z 33011KT 10SM BKN023 BKN030 OVC034 17/13 A3000 RMK AO2 SLP159 T01720133 10178 20128 50001 $
KMEM 241854Z 31007KT 10SM BKN021 BKN029 OVC040 18/14 A3000 RMK AO2 SLP157 T01830139 $
KMEM 241954Z 35008KT 10SM SCT019 BKN027 OVC037 17/14 A3000 RMK AO2 SLP156 T01720139 $



Page loaded:  20:57 UTC  |   01:57 PM Pacific  |   02:57 PM Mountain  |   03:57 PM Central  |   04:57 PM Eastern

 

ADVISORIES

FORECASTS

FORECASTS

OBSERVATIONS

USER TOOLS

ABOUT US